createdAt,value
2018-04-28T00:00:36.271Z,9.70
2018-04-28T00:03:04.557Z,9.70
2018-04-28T00:05:32.814Z,9.80
2018-04-28T00:08:00.323Z,9.70
2018-04-28T00:10:27.767Z,9.70
2018-04-28T00:12:55.256Z,9.70
2018-04-28T00:15:23.528Z,9.60
2018-04-28T00:17:51.256Z,9.60
2018-04-28T00:20:22.353Z,9.60
2018-04-28T00:22:56.668Z,9.70
2018-04-28T00:25:32.032Z,9.70
2018-04-28T00:28:23.988Z,9.70
2018-04-28T00:30:57.260Z,9.60
2018-04-28T00:33:42.213Z,9.40
2018-04-28T00:36:13.370Z,9.30
2018-04-28T00:38:40.916Z,9.40
2018-04-28T00:41:09.972Z,9.20
2018-04-28T00:44:02.885Z,9.20
2018-04-28T00:46:31.131Z,9.20
2018-04-28T00:49:00.487Z,9.20
2018-04-28T00:51:37.467Z,9.10
2018-04-28T00:54:14.966Z,9.10
2018-04-28T00:56:50.414Z,9.20
2018-04-28T00:59:29.306Z,9.20
2018-04-28T01:01:58.325Z,9.10
2018-04-28T01:04:43.479Z,9.10
2018-04-28T01:07:16.374Z,9.10
2018-04-28T01:09:43.861Z,9.10
2018-04-28T01:12:13.587Z,9.10
2018-04-28T01:14:41.986Z,9.00
2018-04-28T01:17:22.459Z,8.90
2018-04-28T01:19:55.810Z,8.90
2018-04-28T01:22:40.867Z,9.00
2018-04-28T01:25:11.283Z,9.00
2018-04-28T01:27:56.091Z,9.10
2018-04-28T01:30:37.989Z,9.10
2018-04-28T01:33:15.198Z,9.10
2018-04-28T01:35:43.881Z,9.10
2018-04-28T01:38:13.436Z,9.10
2018-04-28T01:40:43.416Z,9.10
2018-04-28T01:43:14.258Z,9.30
2018-04-28T01:46:00.510Z,9.30
2018-04-28T01:48:30.634Z,9.30
2018-04-28T01:50:58.115Z,9.40
2018-04-28T01:53:42.928Z,9.50
2018-04-28T01:56:16.222Z,9.50
2018-04-28T01:59:03.395Z,9.50
2018-04-28T02:01:34.377Z,9.60
2018-04-28T02:04:01.847Z,9.80
2018-04-28T02:06:35.166Z,9.80
2018-04-28T02:09:08.153Z,9.90
2018-04-28T02:11:52.218Z,10.00
2018-04-28T02:17:54.032Z,9.90
2018-04-28T02:20:27.415Z,9.80
2018-04-28T02:23:06.185Z,9.70
2018-04-28T02:25:37.283Z,9.60
2018-04-28T02:28:12.023Z,9.50
2018-04-28T02:33:40.067Z,9.40
2018-04-28T02:39:22.206Z,9.40
2018-04-28T02:41:54.221Z,9.40
2018-04-28T02:44:41.081Z,9.30
2018-04-28T02:47:10.263Z,9.20
2018-04-28T02:49:43.590Z,9.20
2018-04-28T02:52:21.525Z,9.20
2018-04-28T02:54:51.873Z,9.10
2018-04-28T02:57:23.323Z,9.20
2018-04-28T02:59:53.547Z,9.00
2018-04-28T03:02:42.267Z,8.90
2018-04-28T03:05:15.382Z,8.90
2018-04-28T03:07:49.340Z,8.90
2018-04-28T03:10:18.462Z,8.80
2018-04-28T03:12:45.935Z,8.70
2018-04-28T03:15:13.433Z,8.70
2018-04-28T03:17:50.799Z,8.70
2018-04-28T03:20:19.822Z,8.70
2018-04-28T03:22:48.774Z,8.60
2018-04-28T03:25:18.883Z,8.60
2018-04-28T03:27:51.383Z,8.70
2018-04-28T03:30:36.478Z,8.70
2018-04-28T03:33:13.866Z,8.60
2018-04-28T03:35:47.298Z,8.60
2018-04-28T03:38:21.202Z,8.60
2018-04-28T03:40:51.368Z,8.60
2018-04-28T03:43:37.134Z,8.70
2018-04-28T03:46:13.347Z,8.60
2018-04-28T03:48:49.427Z,8.60
2018-04-28T03:51:19.687Z,8.60
2018-04-28T03:56:50.704Z,8.50
2018-04-28T03:59:30.180Z,8.60
2018-04-28T04:02:10.206Z,8.50
2018-04-28T04:04:43.675Z,8.40
2018-04-28T04:07:23.776Z,8.50
2018-04-28T04:13:04.818Z,8.40
2018-04-28T04:18:38.846Z,8.50
2018-04-28T04:21:23.265Z,8.50
2018-04-28T04:24:12.483Z,8.70
2018-04-28T04:26:43.995Z,8.70
2018-04-28T04:29:19.922Z,8.70
2018-04-28T04:32:00.790Z,8.70
2018-04-28T04:37:44.535Z,9.10
2018-04-28T04:43:44.341Z,9.60
2018-04-28T04:46:19.696Z,9.80
2018-04-28T04:48:51.624Z,9.90
2018-04-28T04:51:24.372Z,10.00
2018-04-28T04:53:52.117Z,10.30
2018-04-28T04:56:25.285Z,10.30
2018-04-28T04:58:59.665Z,10.40
2018-04-28T05:04:53.814Z,10.70
2018-04-28T05:07:26.202Z,10.80
2018-04-28T05:10:09.260Z,10.90
2018-04-28T05:12:54.597Z,11.00
2018-04-28T05:18:36.405Z,11.20
2018-04-28T05:21:20.793Z,11.20
2018-04-28T05:26:52.922Z,11.40
2018-04-28T05:32:33.897Z,11.90
2018-04-28T05:35:22.146Z,11.90
2018-04-28T05:38:11.263Z,12.10
2018-04-28T05:43:43.702Z,12.60
2018-04-28T05:46:18.030Z,13.10
2018-04-28T05:52:10.591Z,13.20
2018-04-28T05:58:09.386Z,13.50
2018-04-28T06:04:01.313Z,13.80
2018-04-28T06:06:35.546Z,13.90
2018-04-28T06:12:32.677Z,14.30
2018-04-28T06:15:04.470Z,14.60
2018-04-28T06:20:38.253Z,14.80
2018-04-28T06:23:06.078Z,15.00
2018-04-28T06:25:39.190Z,15.30
2018-04-28T06:28:07.695Z,15.30
2018-04-28T06:30:35.626Z,15.30
2018-04-28T06:33:03.450Z,15.40
2018-04-28T06:35:30.986Z,15.50
2018-04-28T06:37:59.318Z,15.50
2018-04-28T06:40:26.787Z,15.50
2018-04-28T06:42:54.262Z,15.60
2018-04-28T06:45:21.909Z,15.60
2018-04-28T06:47:50.310Z,15.70
2018-04-28T06:50:17.788Z,16.00
2018-04-28T06:52:45.524Z,16.20
2018-04-28T06:55:13.774Z,16.20
2018-04-28T06:57:41.251Z,16.30
2018-04-28T07:00:10.795Z,16.30
2018-04-28T07:02:39.059Z,16.50
2018-04-28T07:05:06.595Z,16.50
2018-04-28T07:07:34.121Z,16.50
2018-04-28T07:10:02.428Z,16.50
2018-04-28T07:12:30.681Z,16.30
2018-04-28T07:14:58.162Z,16.30
2018-04-28T07:17:38.034Z,16.40
2018-04-28T07:20:05.541Z,16.40
2018-04-28T07:22:33.068Z,16.40
2018-04-28T07:25:00.584Z,16.70
2018-04-28T07:27:28.375Z,17.00
2018-04-28T07:29:55.900Z,17.20
2018-04-28T07:32:26.779Z,17.50
2018-04-28T07:34:54.514Z,17.50
2018-04-28T07:37:21.994Z,17.70
2018-04-28T07:39:51.155Z,17.90
2018-04-28T07:42:18.661Z,17.90
2018-04-28T07:44:46.152Z,18.10
2018-04-28T07:47:14.414Z,18.40
2018-04-28T07:49:41.907Z,18.40
2018-04-28T07:52:10.125Z,18.50
2018-04-28T07:54:38.443Z,18.50
2018-04-28T07:57:05.978Z,18.40
2018-04-28T07:59:35.506Z,18.40
2018-04-28T08:02:04.079Z,18.10
2018-04-28T08:04:35.978Z,18.50
2018-04-28T08:07:06.606Z,18.50
2018-04-28T08:09:59.961Z,18.50
2018-04-28T08:15:36.739Z,18.30
2018-04-28T11:54:07.390Z,23.60
2018-04-28T11:56:38.896Z,23.80
2018-04-28T11:59:10.114Z,23.80
2018-04-28T12:01:39.772Z,23.80
2018-04-28T12:19:37.310Z,23.30
2018-04-28T12:37:07.673Z,21.90
2018-04-28T12:39:36.444Z,21.70
2018-04-28T12:42:11.107Z,21.70
2018-04-28T13:02:36.694Z,21.10
2018-04-28T13:05:07.405Z,20.80
2018-04-28T13:10:37.599Z,20.60
2018-04-28T13:13:05.954Z,20.20
2018-04-28T13:18:34.330Z,20.30
2018-04-28T13:21:04.518Z,20.50
2018-04-28T13:23:34.934Z,20.40
2018-04-28T13:26:05.419Z,20.40
2018-04-28T13:28:35.597Z,20.70
2018-04-28T13:31:05.812Z,20.60
2018-04-28T13:33:36.867Z,20.50
2018-04-28T13:39:05.989Z,20.70
2018-04-28T13:41:36.858Z,20.60
2018-04-28T13:44:07.171Z,20.60
2018-04-28T13:46:54.616Z,20.60
2018-04-28T13:49:38.042Z,20.60
2018-04-28T13:52:05.553Z,20.40
2018-04-28T13:54:37.973Z,20.30
2018-04-28T13:57:06.895Z,20.30
2018-04-28T13:59:36.327Z,19.90
2018-04-28T14:02:06.792Z,20.00
2018-04-28T14:19:32.155Z,19.60
2018-04-28T14:22:03.474Z,19.80
2018-04-28T14:24:37.423Z,20.10
2018-04-28T14:30:08.091Z,19.90
2018-04-28T14:32:36.346Z,19.70
2018-04-28T14:35:06.878Z,19.70
2018-04-28T14:37:34.376Z,20.00
2018-04-28T14:40:05.670Z,20.10
2018-04-28T14:42:51.589Z,20.40
2018-04-28T14:54:05.109Z,21.00
2018-04-28T14:56:37.000Z,21.00
2018-04-28T14:59:05.697Z,20.90
2018-04-28T15:01:36.043Z,20.90
2018-04-28T15:04:04.532Z,20.50
2018-04-28T15:06:36.539Z,20.10
2018-04-28T15:09:07.261Z,20.10
2018-04-28T15:11:36.102Z,20.10
2018-04-28T15:14:06.959Z,20.00
2018-04-28T15:19:35.808Z,20.20
2018-04-28T15:36:43.998Z,20.30
2018-04-28T15:41:51.061Z,20.30
2018-04-28T15:44:23.243Z,20.30
2018-04-28T15:46:56.059Z,20.20
2018-04-28T15:49:30.598Z,20.30
2018-04-28T15:52:05.576Z,20.40
2018-04-28T15:54:35.792Z,20.40
2018-04-28T15:57:05.101Z,20.20
2018-04-28T15:59:34.316Z,20.10
2018-04-28T16:02:04.813Z,20.10
2018-04-28T16:04:35.118Z,19.90
2018-04-28T16:07:05.663Z,20.00
2018-04-28T16:09:36.048Z,20.10
2018-04-28T16:12:05.415Z,20.20
2018-04-28T16:14:35.402Z,19.90
2018-04-28T16:17:06.223Z,19.90
2018-04-28T16:19:37.048Z,19.80
2018-04-28T16:22:05.974Z,19.70
2018-04-28T16:27:22.221Z,19.60
2018-04-28T16:30:06.540Z,19.80
2018-04-28T16:35:50.806Z,19.90
2018-04-28T16:38:24.144Z,19.80
2018-04-28T16:41:24.491Z,19.90
2018-04-28T16:52:59.886Z,19.60
2018-04-28T16:58:37.077Z,19.70
2018-04-28T17:01:05.892Z,19.60
2018-04-28T17:03:35.586Z,19.50
2018-04-28T17:06:06.110Z,19.50
2018-04-28T17:08:36.606Z,19.40
2018-04-28T17:11:04.103Z,19.50
2018-04-28T17:13:35.744Z,19.30
2018-04-28T17:19:05.885Z,19.20
2018-04-28T17:21:36.661Z,19.20
2018-04-28T17:24:05.835Z,19.20
2018-04-28T17:29:35.999Z,19.30
2018-04-28T17:32:07.140Z,19.20
2018-04-28T17:34:35.949Z,19.20
2018-04-28T17:37:06.740Z,19.10
2018-04-28T17:45:07.568Z,18.90
2018-04-28T17:47:35.907Z,18.80
2018-04-28T17:59:02.960Z,18.30
2018-04-28T18:01:36.307Z,18.20
2018-04-28T18:07:06.373Z,18.20
2018-04-28T18:09:37.028Z,18.00
2018-04-28T18:12:05.993Z,18.00
2018-04-28T18:23:37.016Z,17.50
2018-04-28T18:38:36.592Z,16.80
2018-04-28T18:41:06.287Z,16.60
2018-04-28T18:48:37.229Z,16.10
2018-04-28T18:51:07.404Z,15.80
2018-04-28T18:53:37.383Z,15.90
2018-04-28T18:56:04.907Z,15.80
2018-04-28T18:58:34.336Z,15.60
2018-04-28T19:01:04.550Z,15.50
2018-04-28T19:03:34.994Z,15.40
2018-04-28T19:15:09.286Z,15.20
2018-04-28T19:17:38.183Z,15.10
2018-04-28T19:20:05.775Z,15.00
2018-04-28T19:22:35.706Z,15.30
2018-04-28T19:25:06.487Z,15.20
2018-04-28T19:27:36.229Z,15.40
2018-04-28T19:30:05.729Z,15.40
2018-04-28T19:32:37.124Z,15.40
2018-04-28T19:35:05.376Z,15.30
2018-04-28T19:37:36.928Z,15.20
2018-04-28T19:40:05.060Z,15.20
2018-04-28T19:42:36.917Z,15.30
2018-04-28T19:45:05.597Z,15.30
2018-04-28T19:47:37.911Z,15.20
2018-04-28T19:50:07.680Z,15.20
2018-04-28T19:52:36.111Z,15.10
2018-04-28T19:55:07.266Z,15.20
2018-04-28T19:57:36.005Z,15.30
2018-04-28T20:00:07.440Z,15.20
2018-04-28T20:02:36.176Z,15.30
2018-04-28T20:05:05.670Z,15.20
2018-04-28T20:07:33.166Z,15.10
2018-04-28T20:10:00.754Z,15.10
2018-04-28T20:12:28.925Z,15.20
2018-04-28T20:15:00.375Z,15.20
2018-04-28T20:17:27.862Z,15.20
2018-04-28T20:19:55.363Z,15.20
2018-04-28T20:22:35.502Z,14.90
2018-04-28T20:28:05.783Z,14.90
2018-04-28T20:30:33.293Z,14.90
2018-04-28T20:33:00.799Z,14.80
2018-04-28T20:35:28.287Z,14.80
2018-04-28T20:37:56.544Z,14.80
2018-04-28T20:40:24.132Z,14.70
2018-04-28T20:42:51.706Z,14.70
2018-04-28T20:45:36.424Z,14.60
2018-04-28T20:48:03.955Z,14.60
2018-04-28T20:50:32.263Z,14.60
2018-04-28T20:53:00.504Z,14.60
2018-04-28T20:55:28.047Z,14.60
2018-04-28T20:57:55.898Z,14.50
2018-04-28T21:00:24.163Z,14.30
2018-04-28T21:02:51.679Z,14.30
2018-04-28T21:05:35.814Z,14.50
2018-04-28T21:08:04.160Z,14.40
2018-04-28T21:10:33.599Z,14.40
2018-04-28T21:13:02.092Z,14.40
2018-04-28T21:15:29.582Z,14.40
2018-04-28T21:17:57.848Z,14.40
2018-04-28T21:20:25.342Z,14.40
2018-04-28T21:22:53.602Z,14.20
2018-04-28T21:25:21.090Z,14.20
2018-04-28T21:28:14.331Z,14.10
2018-04-28T21:30:41.898Z,14.10
2018-04-28T21:33:09.397Z,14.00
2018-04-28T21:35:36.899Z,14.00
2018-04-28T21:38:05.163Z,13.90
2018-04-28T21:40:32.680Z,13.90
2018-04-28T21:43:00.178Z,13.80
2018-04-28T21:45:27.694Z,13.80
2018-04-28T21:47:55.265Z,13.90
2018-04-28T21:50:23.820Z,14.10
2018-04-28T21:52:51.342Z,14.10
2018-04-28T21:55:18.842Z,14.20
2018-04-28T21:57:52.962Z,14.20
2018-04-28T22:00:20.500Z,14.20
2018-04-28T22:02:48.759Z,14.40
2018-04-28T22:05:16.271Z,14.30
2018-04-28T22:07:43.831Z,14.30
2018-04-28T22:10:11.324Z,14.20
2018-04-28T22:12:46.967Z,14.30
2018-04-28T22:15:14.666Z,14.30
2018-04-28T22:17:42.908Z,14.40
2018-04-28T22:20:10.396Z,14.30
2018-04-28T22:22:43.147Z,14.20
2018-04-28T22:25:10.638Z,14.20
2018-04-28T22:27:38.926Z,14.20
2018-04-28T22:30:06.422Z,14.20
2018-04-28T22:32:33.945Z,14.20
2018-04-28T22:35:01.436Z,14.10
2018-04-28T22:37:43.134Z,14.00
2018-04-28T22:40:10.661Z,14.00
2018-04-28T22:42:38.147Z,13.90
2018-04-28T22:45:05.631Z,13.70
2018-04-28T22:47:33.107Z,13.70
2018-04-28T22:50:13.335Z,13.70
